Time;durP1;ratioP1;P1;durP2;ratioP2;P2;SDS_P1;SDS_P2;PMS_P1;PMS_P2;Temp;Humidity;BMP_temperature;BMP_pressure;BME280_temperature;BME280_humidity;BME280_pressure;Samples;Min_cycle;Max_cycle;Signal;HPM_P1;HPM_P2
2022/05/06 00:00:19;;;;;;;4.05;2.88;;;12.60;51.90;;;;;;5093894;28;20384;-58
2022/05/06 00:02:44;;;;;;;4.90;2.72;;;12.60;51.90;;;;;;5089602;28;20031;-59
2022/05/06 00:05:11;;;;;;;4.07;2.90;;;12.60;52.00;;;;;;5081723;28;20461;-59
2022/05/06 00:07:37;;;;;;;3.50;2.65;;;12.60;52.30;;;;;;5093549;28;20107;-59
2022/05/06 00:10:04;;;;;;;4.68;2.72;;;12.60;52.50;;;;;;5092934;28;20032;-58
2022/05/06 00:12:30;;;;;;;4.03;2.80;;;12.60;52.60;;;;;;5089928;28;20028;-59
2022/05/06 00:14:56;;;;;;;3.58;2.70;;;12.60;52.90;;;;;;5093682;28;20445;-58
2022/05/06 00:17:22;;;;;;;3.92;2.58;;;12.60;52.90;;;;;;5092500;28;20101;-59
2022/05/06 00:19:48;;;;;;;2.95;2.50;;;12.50;52.90;;;;;;5092366;28;20024;-59
2022/05/06 00:22:14;;;;;;;3.63;2.50;;;12.60;52.90;;;;;;5090121;28;20434;-59
2022/05/06 00:24:40;;;;;;;2.83;2.60;;;12.50;53.00;;;;;;5093667;28;20020;-59
2022/05/06 00:27:06;;;;;;;3.75;2.80;;;12.50;53.20;;;;;;5092636;28;20089;-59
2022/05/06 00:29:33;;;;;;;3.38;2.55;;;12.50;53.40;;;;;;5088003;28;20073;-58
2022/05/06 00:31:59;;;;;;;4.30;2.80;;;12.50;53.50;;;;;;5087864;28;20555;-59
2022/05/06 00:34:25;;;;;;;3.03;2.63;;;12.50;53.60;;;;;;5098025;28;20099;-58
2022/05/06 00:36:50;;;;;;;3.47;2.70;;;12.50;53.70;;;;;;5080740;28;20095;-59
2022/05/06 00:39:16;;;;;;;3.55;2.95;;;12.50;53.80;;;;;;5092417;28;20051;-59
2022/05/06 00:41:42;;;;;;;3.35;2.58;;;12.40;54.00;;;;;;5085883;28;20024;-59
2022/05/06 00:44:09;;;;;;;3.13;2.53;;;12.40;54.00;;;;;;5091647;28;20440;-59
2022/05/06 00:46:37;;;;;;;3.58;2.47;;;12.40;54.00;;;;;;5086596;28;20036;-59
2022/05/06 00:49:05;;;;;;;3.67;2.90;;;12.40;54.00;;;;;;5093025;28;20028;-59
2022/05/06 00:51:31;;;;;;;4.22;2.55;;;12.40;54.10;;;;;;5090536;28;20024;-59
2022/05/06 00:53:57;;;;;;;4.32;3.13;;;12.30;54.10;;;;;;5091137;28;20023;-59
2022/05/06 00:56:24;;;;;;;3.70;2.83;;;12.30;54.20;;;;;;5092973;28;20044;-59
2022/05/06 00:58:51;;;;;;;2.70;2.50;;;12.30;54.30;;;;;;5090839;28;20024;-59
2022/05/06 01:01:18;;;;;;;4.35;2.65;;;12.40;54.50;;;;;;5087730;28;20031;-59
2022/05/06 01:03:43;;;;;;;3.20;2.70;;;12.40;54.50;;;;;;5084293;28;20032;-59
2022/05/06 01:06:13;;;;;;;3.63;2.67;;;12.40;54.50;;;;;;5081644;28;20022;-58
2022/05/06 01:08:41;;;;;;;5.18;3.00;;;12.30;54.70;;;;;;5086483;28;20104;-59
2022/05/06 01:11:07;;;;;;;3.38;2.75;;;12.30;54.80;;;;;;5085867;28;20020;-58
2022/05/06 01:13:45;;;;;;;2.97;2.67;;;12.30;55.00;;;;;;5082363;28;20055;-59
2022/05/06 01:16:12;;;;;;;2.70;2.50;;;12.40;55.10;;;;;;5092596;28;20060;-59
2022/05/06 01:18:38;;;;;;;3.05;2.72;;;12.30;55.20;;;;;;5089593;28;20044;-59
2022/05/06 01:21:05;;;;;;;2.72;2.53;;;12.30;55.10;;;;;;5088414;28;20437;-59
2022/05/06 01:23:32;;;;;;;3.10;2.70;;;12.30;55.10;;;;;;5086161;28;20035;-59
2022/05/06 01:25:58;;;;;;;3.08;2.78;;;12.30;55.10;;;;;;5088308;28;20028;-59
2022/05/06 01:28:25;;;;;;;2.53;2.30;;;12.30;55.20;;;;;;5089391;28;20040;-59
2022/05/06 01:30:58;;;;;;;3.78;2.88;;;12.20;55.30;;;;;;5092788;28;20541;-59
2022/05/06 01:33:25;;;;;;;3.17;2.70;;;12.20;55.40;;;;;;5084759;28;20032;-59
2022/05/06 01:35:58;;;;;;;3.13;2.72;;;12.20;55.50;;;;;;5092657;28;20089;-59
2022/05/06 01:38:46;;;;;;;3.35;2.58;;;12.20;55.90;;;;;;5086359;28;20021;-59
2022/05/06 01:41:23;;;;;;;3.33;2.85;;;12.20;56.20;;;;;;5092264;28;20464;-59
2022/05/06 01:44:09;;;;;;;3.45;2.70;;;12.20;56.50;;;;;;5085167;28;20032;-59
2022/05/06 01:46:36;;;;;;;3.65;2.72;;;12.20;56.60;;;;;;5090448;28;20032;-59
2022/05/06 01:49:03;;;;;;;3.42;2.85;;;12.20;56.50;;;;;;5091136;28;20024;-59
2022/05/06 01:51:30;;;;;;;3.22;2.65;;;12.20;56.70;;;;;;5090880;28;20027;-58
2022/05/06 01:53:56;;;;;;;4.47;2.72;;;12.20;56.70;;;;;;5089377;28;20028;-59
2022/05/06 01:56:22;;;;;;;3.28;2.75;;;12.20;57.00;;;;;;5081777;28;20077;-59
2022/05/06 01:58:48;;;;;;;3.53;3.10;;;12.20;57.20;;;;;;5090226;28;20026;-58
2022/05/06 02:01:14;;;;;;;3.45;2.80;;;12.20;57.30;;;;;;5072680;28;20024;-58
2022/05/06 02:06:29;;;;;;;3.33;2.65;;;12.20;57.60;;;;;;5062536;28;20032;-59
2022/05/06 02:08:55;;;;;;;3.75;2.53;;;12.20;57.70;;;;;;5091846;28;20077;-59
2022/05/06 02:11:20;;;;;;;3.25;2.70;;;12.20;58.00;;;;;;5090836;28;20028;-59
2022/05/06 02:13:46;;;;;;;3.10;2.80;;;12.20;58.20;;;;;;5090578;28;20626;-59
2022/05/06 02:16:12;;;;;;;2.90;2.40;;;12.20;58.40;;;;;;5089660;28;20483;-58
2022/05/06 02:18:38;;;;;;;2.70;2.50;;;12.20;58.70;;;;;;5087437;28;20396;-58
2022/05/06 02:21:04;;;;;;;2.40;2.20;;;12.20;57.50;;;;;;5091406;28;20028;-59
2022/05/06 02:23:30;;;;;;;2.60;2.40;;;12.20;57.10;;;;;;5090416;28;20062;-58
2022/05/06 02:25:56;;;;;;;3.10;2.53;;;12.10;56.90;;;;;;5090025;28;20102;-59
2022/05/06 02:28:21;;;;;;;2.97;2.58;;;12.10;56.90;;;;;;5088265;28;20032;-58
2022/05/06 02:33:31;;;;;;;3.80;2.78;;;12.10;56.90;;;;;;5090712;28;20077;-59
2022/05/06 02:35:59;;;;;;;3.42;2.70;;;12.10;57.00;;;;;;5090849;28;20480;-59
2022/05/06 02:38:25;;;;;;;2.80;2.50;;;12.10;57.70;;;;;;5091114;28;20103;-58
2022/05/06 02:40:51;;;;;;;3.75;2.80;;;12.20;57.00;;;;;;5091023;28;20024;-58
2022/05/06 02:43:17;;;;;;;4.20;2.55;;;12.10;57.10;;;;;;5090833;28;20036;-59
2022/05/06 02:45:44;;;;;;;2.92;2.50;;;12.10;57.30;;;;;;5086536;28;20035;-58
2022/05/06 02:48:10;;;;;;;2.97;2.60;;;12.10;57.50;;;;;;5090356;28;20032;-57
2022/05/06 02:50:37;;;;;;;3.20;2.63;;;12.10;57.70;;;;;;5091055;28;20035;-59
2022/05/06 02:53:03;;;;;;;3.17;2.55;;;12.10;57.70;;;;;;5089966;28;20028;-59
2022/05/06 02:55:29;;;;;;;4.47;2.60;;;12.10;57.80;;;;;;5082454;28;20028;-58
2022/05/06 02:57:54;;;;;;;3.75;2.63;;;12.20;58.10;;;;;;5091239;28;20033;-59
2022/05/06 03:00:21;;;;;;;2.83;2.50;;;12.20;58.20;;;;;;5091123;28;20068;-59
2022/05/06 03:02:47;;;;;;;2.83;2.53;;;12.20;58.20;;;;;;5084867;28;20077;-58
2022/05/06 03:05:13;;;;;;;2.92;2.45;;;12.30;58.40;;;;;;5084219;28;20032;-59
2022/05/06 03:07:39;;;;;;;2.97;2.67;;;12.30;58.40;;;;;;5091285;28;20024;-59
2022/05/06 03:10:06;;;;;;;2.97;2.47;;;12.40;58.50;;;;;;5091176;28;20028;-59
2022/05/06 03:12:32;;;;;;;3.20;2.90;;;12.50;58.70;;;;;;5090114;28;20501;-59
2022/05/06 03:14:58;;;;;;;2.40;2.20;;;12.60;58.80;;;;;;5083511;28;20036;-59
2022/05/06 03:17:24;;;;;;;3.05;2.45;;;12.70;58.70;;;;;;5090749;28;20040;-59
2022/05/06 03:19:50;;;;;;;2.30;2.10;;;12.80;58.80;;;;;;5081258;28;20028;-59
2022/05/06 03:22:17;;;;;;;3.03;2.72;;;12.90;58.60;;;;;;5090048;28;20035;-58
2022/05/06 03:24:46;;;;;;;3.83;2.67;;;13.10;58.10;;;;;;5090688;28;20039;-57
2022/05/06 03:29:56;;;;;;;3.53;2.70;;;13.30;57.80;;;;;;5086945;28;20089;-59
2022/05/06 03:32:22;;;;;;;2.92;2.63;;;13.40;57.60;;;;;;5093582;28;20438;-59
2022/05/06 03:34:49;;;;;;;3.03;2.33;;;13.60;57.70;;;;;;5093507;28;20032;-58
2022/05/06 03:37:15;;;;;;;3.08;2.40;;;13.70;57.60;;;;;;5091575;28;20543;-58
2022/05/06 03:39:41;;;;;;;3.50;2.63;;;13.90;57.70;;;;;;5094023;28;20016;-59
2022/05/06 03:42:07;;;;;;;2.42;2.05;;;14.00;57.60;;;;;;5093533;28;20158;-59
2022/05/06 03:44:32;;;;;;;3.72;2.30;;;14.20;58.10;;;;;;5077350;28;20047;-58
2022/05/06 03:46:59;;;;;;;3.53;2.35;;;14.40;57.80;;;;;;5094331;28;20043;-59
2022/05/06 03:49:25;;;;;;;3.05;2.75;;;14.60;57.40;;;;;;5092971;28;20024;-58
2022/05/06 03:51:51;;;;;;;4.80;2.78;;;14.80;57.20;;;;;;5094115;28;20132;-59
2022/05/06 03:54:16;;;;;;;4.10;2.50;;;15.10;57.20;;;;;;5085091;28;20089;-59
2022/05/06 03:56:42;;;;;;;2.78;2.40;;;15.40;57.30;;;;;;5091664;28;20497;-59
2022/05/06 03:59:09;;;;;;;2.53;2.33;;;15.80;57.10;;;;;;5094206;28;20430;-59
2022/05/06 04:01:35;;;;;;;3.25;2.50;;;16.40;56.40;;;;;;5093375;28;20497;-58
2022/05/06 04:04:01;;;;;;;2.30;2.10;;;17.00;55.10;;;;;;5091894;28;20043;-59
2022/05/06 04:06:27;;;;;;;2.75;2.30;;;17.60;54.10;;;;;;5094088;28;20425;-59
2022/05/06 04:08:54;;;;;;;3.00;2.33;;;18.30;53.30;;;;;;5093797;28;20027;-58
2022/05/06 04:11:20;;;;;;;2.40;2.17;;;19.00;51.70;;;;;;5093371;28;20081;-57
2022/05/06 04:13:46;;;;;;;2.63;2.20;;;19.60;51.10;;;;;;5090528;28;20356;-56
2022/05/06 04:16:12;;;;;;;2.42;2.20;;;20.20;50.40;;;;;;5084597;28;20025;-56
2022/05/06 04:18:38;;;;;;;2.40;2.20;;;21.00;49.70;;;;;;5098727;28;20051;-55
2022/05/06 04:23:48;;;;;;;2.53;2.17;;;21.60;47.20;;;;;;5082316;28;20435;-58
2022/05/06 04:26:14;;;;;;;2.30;2.10;;;21.40;46.70;;;;;;5086699;28;20263;-58
2022/05/06 04:28:40;;;;;;;2.30;2.08;;;21.10;46.90;;;;;;5081560;28;20028;-57
2022/05/06 04:31:07;;;;;;;2.50;2.30;;;20.90;46.60;;;;;;5090364;28;20040;-57
2022/05/06 04:33:34;;;;;;;2.40;2.13;;;20.90;46.70;;;;;;5086103;28;20041;-57
2022/05/06 04:36:00;;;;;;;3.35;2.10;;;20.90;45.60;;;;;;5091253;28;20039;-57
2022/05/06 04:38:26;;;;;;;3.03;2.42;;;20.60;45.60;;;;;;5087126;28;20035;-57
2022/05/06 04:40:58;;;;;;;3.08;2.10;;;20.40;46.00;;;;;;5086792;28;20055;-57
2022/05/06 04:43:25;;;;;;;2.85;2.33;;;20.50;46.20;;;;;;5090403;28;20499;-57
2022/05/06 04:45:51;;;;;;;2.35;1.88;;;21.00;46.30;;;;;;5087374;28;20092;-58
2022/05/06 04:48:18;;;;;;;3.13;2.30;;;21.70;45.90;;;;;;5088095;28;20391;-57
2022/05/06 04:50:44;;;;;;;2.38;2.17;;;22.40;45.00;;;;;;5090556;28;20052;-57
2022/05/06 04:53:11;;;;;;;2.60;2.17;;;22.90;44.10;;;;;;5082764;28;20099;-57
2022/05/06 04:55:40;;;;;;;3.28;2.30;;;23.10;43.30;;;;;;5091020;28;20036;-57
2022/05/06 04:58:07;;;;;;;2.28;2.08;;;23.30;43.20;;;;;;5079085;28;20028;-57
2022/05/06 05:00:33;;;;;;;2.10;1.90;;;23.50;42.60;;;;;;5087087;28;20033;-57
2022/05/06 05:03:00;;;;;;;2.20;2.00;;;23.40;42.30;;;;;;5088985;28;20089;-57
2022/05/06 05:05:26;;;;;;;2.50;2.30;;;23.40;42.30;;;;;;5087069;28;20106;-57
2022/05/06 05:07:53;;;;;;;2.72;2.20;;;23.20;41.90;;;;;;5087555;28;20035;-57
2022/05/06 05:10:20;;;;;;;2.42;2.00;;;22.90;42.10;;;;;;5080720;28;20032;-57
2022/05/06 05:12:45;;;;;;;4.93;2.75;;;22.60;42.40;;;;;;5087358;28;20024;-57
2022/05/06 05:15:11;;;;;;;3.88;2.50;;;22.20;43.10;;;;;;5089026;28;20492;-57
2022/05/06 05:17:37;;;;;;;2.33;2.10;;;21.80;42.80;;;;;;5088483;28;20043;-57
2022/05/06 05:20:03;;;;;;;2.67;2.38;;;21.60;43.40;;;;;;5088319;28;20043;-56
2022/05/06 05:22:31;;;;;;;3.45;2.35;;;21.40;43.50;;;;;;5090348;28;20095;-57
2022/05/06 05:24:57;;;;;;;4.40;2.60;;;21.40;43.50;;;;;;5086896;28;20028;-57
2022/05/06 05:27:23;;;;;;;2.40;2.20;;;21.50;43.20;;;;;;5089001;28;20097;-57
2022/05/06 05:29:48;;;;;;;3.10;2.53;;;21.50;43.00;;;;;;5086986;28;20023;-57
2022/05/06 05:32:14;;;;;;;3.30;2.83;;;21.10;43.20;;;;;;5084283;28;20073;-57
2022/05/06 05:34:42;;;;;;;4.18;2.85;;;20.60;43.70;;;;;;5085091;28;20040;-55
2022/05/06 05:37:09;;;;;;;2.80;2.47;;;20.30;44.40;;;;;;5088269;28;20081;-57
2022/05/06 05:39:35;;;;;;;3.17;2.40;;;19.90;45.00;;;;;;5081191;28;20024;-57
2022/05/06 05:42:01;;;;;;;2.78;2.45;;;19.60;45.60;;;;;;5084812;28;20020;-58
2022/05/06 05:49:54;;;;;;;4.13;2.80;;;18.60;47.00;;;;;;5090816;28;20047;-57
2022/05/06 05:52:20;;;;;;;3.45;2.63;;;18.30;47.30;;;;;;5088091;28;20020;-57
2022/05/06 05:54:46;;;;;;;3.45;2.50;;;18.00;47.80;;;;;;5085966;28;20059;-57
2022/05/06 05:57:11;;;;;;;3.58;2.70;;;17.90;48.00;;;;;;5077290;28;20024;-56
2022/05/06 05:59:38;;;;;;;3.00;2.50;;;17.70;48.40;;;;;;5078341;28;20028;-56
2022/05/06 06:02:04;;;;;;;2.95;2.65;;;17.60;48.80;;;;;;5085821;28;20032;-57
2022/05/06 06:04:30;;;;;;;3.97;2.58;;;17.60;49.10;;;;;;5085127;28;20502;-57
2022/05/06 06:06:56;;;;;;;5.30;2.78;;;17.50;49.50;;;;;;5085169;28;20039;-57
2022/05/06 06:09:22;;;;;;;2.55;2.35;;;17.40;49.70;;;;;;5083407;28;20144;-57
2022/05/06 06:11:51;;;;;;;2.63;2.28;;;17.40;50.00;;;;;;5084647;28;20119;-57
2022/05/06 06:14:17;;;;;;;3.38;2.78;;;17.30;50.20;;;;;;5087097;28;20040;-57
2022/05/06 06:16:43;;;;;;;2.83;2.50;;;17.20;50.50;;;;;;5084079;28;20034;-57
2022/05/06 06:19:09;;;;;;;3.05;2.47;;;17.10;50.60;;;;;;5075611;28;20055;-57
2022/05/06 06:21:35;;;;;;;2.72;2.50;;;17.10;50.80;;;;;;5075186;28;20036;-58
2022/05/06 06:24:00;;;;;;;4.68;2.88;;;17.00;51.00;;;;;;5078716;28;20034;-58
2022/05/06 06:26:26;;;;;;;3.03;2.40;;;16.90;51.30;;;;;;5082532;28;20032;-58
2022/05/06 06:28:52;;;;;;;3.20;2.65;;;16.80;51.50;;;;;;5082203;28;20169;-58
2022/05/06 06:31:18;;;;;;;2.65;2.35;;;16.70;51.70;;;;;;5079303;28;20502;-57
2022/05/06 06:33:43;;;;;;;2.90;2.65;;;16.60;51.90;;;;;;5079617;28;20154;-57
2022/05/06 06:36:09;;;;;;;3.47;2.65;;;16.50;52.20;;;;;;5081611;28;20437;-58
2022/05/06 06:38:35;;;;;;;2.92;2.60;;;16.40;52.40;;;;;;5077828;28;20077;-58
2022/05/06 06:41:01;;;;;;;3.33;2.60;;;16.30;52.50;;;;;;5072472;28;20391;-58
2022/05/06 06:43:27;;;;;;;4.25;2.97;;;16.10;53.10;;;;;;5075876;28;20032;-58
2022/05/06 06:45:53;;;;;;;3.45;2.70;;;15.90;53.50;;;;;;5075660;28;20028;-56
2022/05/06 06:48:19;;;;;;;3.65;2.58;;;15.80;53.70;;;;;;5077090;28;20129;-57
2022/05/06 06:50:44;;;;;;;3.15;2.60;;;15.80;54.00;;;;;;5075269;28;20027;-58
2022/05/06 06:53:10;;;;;;;3.47;2.70;;;15.80;54.10;;;;;;5077537;28;20601;-57
2022/05/06 06:55:36;;;;;;;2.90;2.60;;;15.80;54.10;;;;;;5074795;28;20072;-59
2022/05/06 06:58:06;;;;;;;2.95;2.65;;;15.90;54.30;;;;;;5069440;28;20088;-58
2022/05/06 07:00:31;;;;;;;3.78;2.53;;;15.90;54.40;;;;;;5071789;28;20024;-57
2022/05/06 07:02:57;;;;;;;3.40;2.65;;;15.80;54.50;;;;;;5067778;28;20023;-57
2022/05/06 07:05:23;;;;;;;3.95;2.90;;;15.80;54.80;;;;;;5074349;28;20093;-58
2022/05/06 07:13:19;;;;;;;2.70;2.50;;;15.90;54.90;;;;;;5083208;28;20027;-57
2022/05/06 07:15:45;;;;;;;2.85;2.45;;;15.80;54.80;;;;;;5081194;28;20087;-57
2022/05/06 07:18:11;;;;;;;3.50;2.50;;;15.80;55.10;;;;;;5069945;28;20048;-57
2022/05/06 07:20:36;;;;;;;4.20;2.65;;;15.80;55.30;;;;;;5084520;28;20107;-56
2022/05/06 07:23:03;;;;;;;3.47;2.80;;;15.70;55.30;;;;;;5086245;28;20035;-56
2022/05/06 07:25:29;;;;;;;3.85;2.70;;;15.80;55.10;;;;;;5076740;28;20036;-57
2022/05/06 07:27:55;;;;;;;2.95;2.63;;;15.70;55.00;;;;;;5076536;28;20036;-56
2022/05/06 07:30:21;;;;;;;3.58;2.80;;;15.80;55.10;;;;;;5078596;28;20495;-56
2022/05/06 07:32:47;;;;;;;3.55;2.90;;;15.80;55.20;;;;;;5076634;28;20302;-58
2022/05/06 07:35:13;;;;;;;3.88;2.85;;;15.80;55.00;;;;;;5076467;28;20035;-57
2022/05/06 07:37:39;;;;;;;5.85;2.72;;;15.90;54.80;;;;;;5082539;28;20020;-58
2022/05/06 07:40:05;;;;;;;3.83;2.90;;;15.90;54.80;;;;;;5075776;28;20074;-57
2022/05/06 07:42:31;;;;;;;3.28;2.72;;;15.80;54.90;;;;;;5076934;28;20102;-58
2022/05/06 07:45:00;;;;;;;3.88;2.58;;;15.80;55.20;;;;;;5069294;28;20115;-57
2022/05/06 07:47:26;;;;;;;3.85;3.08;;;15.90;55.30;;;;;;5072435;28;20032;-57
2022/05/06 07:49:52;;;;;;;3.85;3.13;;;15.90;55.10;;;;;;5075590;28;20036;-57
2022/05/06 07:52:18;;;;;;;3.47;2.88;;;15.90;55.80;;;;;;5071003;28;20032;-58
2022/05/06 07:54:44;;;;;;;3.67;2.67;;;15.90;55.20;;;;;;5076182;28;20368;-58
2022/05/06 07:57:09;;;;;;;3.38;3.00;;;15.90;55.30;;;;;;5074417;28;20039;-57
2022/05/06 07:59:35;;;;;;;4.22;2.88;;;15.90;55.00;;;;;;5066299;28;20028;-57
2022/05/06 08:04:51;;;;;;;3.50;2.92;;;16.00;55.20;;;;;;5074804;28;20059;-57
2022/05/06 08:07:18;;;;;;;5.57;3.13;;;15.90;55.30;;;;;;5073562;28;20032;-57
2022/05/06 08:09:44;;;;;;;2.88;2.67;;;15.90;55.40;;;;;;5061926;28;20032;-59
2022/05/06 08:12:10;;;;;;;2.92;2.63;;;15.90;55.40;;;;;;5063757;28;20086;-58
2022/05/06 08:14:36;;;;;;;4.63;3.05;;;15.80;55.40;;;;;;5069969;28;20032;-58
2022/05/06 08:17:03;;;;;;;3.75;2.95;;;15.80;55.50;;;;;;5073031;28;20050;-58
2022/05/06 08:19:29;;;;;;;3.25;2.80;;;15.70;55.40;;;;;;5060558;28;20051;-57
2022/05/06 08:21:55;;;;;;;3.08;2.60;;;15.70;55.50;;;;;;5072774;28;20114;-57
2022/05/06 08:24:22;;;;;;;3.22;2.80;;;15.60;55.50;;;;;;5072905;28;20403;-58
2022/05/06 08:26:49;;;;;;;3.20;2.65;;;15.60;56.10;;;;;;5065772;28;20031;-59
2022/05/06 08:29:15;;;;;;;3.58;2.90;;;15.70;56.10;;;;;;5071338;28;20024;-57
2022/05/06 08:31:41;;;;;;;4.13;3.22;;;15.70;56.20;;;;;;5071292;28;20055;-57
2022/05/06 08:34:13;;;;;;;3.38;2.80;;;15.70;56.30;;;;;;5075864;28;20844;-57
2022/05/06 08:36:40;;;;;;;2.75;2.30;;;15.70;55.10;;;;;;5066695;28;20398;-57
2022/05/06 08:39:07;;;;;;;3.20;2.85;;;15.70;54.30;;;;;;5068387;28;20063;-57
2022/05/06 08:41:35;;;;;;;3.50;2.80;;;15.70;54.30;;;;;;5073433;28;20483;-57
2022/05/06 08:50:50;;;;;;;2.47;2.28;;;15.80;54.70;;;;;;5069955;28;20035;-57
2022/05/06 08:52:31;;;;;;;2.75;2.10;;;15.80;51.40;;;;;;5065902;28;20046;-58
2022/05/06 08:54:57;;;;;;;1.88;1.77;;;15.80;50.20;;;;;;5070568;28;20119;-59
2022/05/06 08:57:23;;;;;;;3.05;2.10;;;15.80;49.40;;;;;;5066499;28;20024;-59
2022/05/06 08:59:53;;;;;;;3.10;2.40;;;15.80;48.80;;;;;;5059059;28;20028;-59
2022/05/06 09:02:20;;;;;;;3.40;2.08;;;15.90;48.50;;;;;;5068609;28;20146;-58
2022/05/06 09:04:46;;;;;;;1.88;1.77;;;15.90;47.80;;;;;;5075178;28;21058;-58
2022/05/06 09:07:19;;;;;;;2.53;2.13;;;15.90;46.50;;;;;;5071946;28;20036;-59
2022/05/06 09:10:15;;;;;;;2.60;1.90;;;15.90;45.30;;;;;;5071738;28;20032;-57
2022/05/06 09:12:45;;;;;;;2.78;2.13;;;15.80;44.50;;;;;;5068327;28;20028;-58
2022/05/06 09:18:02;;;;;;;2.95;2.08;;;15.80;45.40;;;;;;5075291;28;20633;-57
2022/05/06 09:20:28;;;;;;;3.08;2.35;;;15.80;45.30;;;;;;5065205;28;20523;-57
2022/05/06 09:22:55;;;;;;;2.50;1.85;;;15.70;45.20;;;;;;5065596;28;20089;-58
2022/05/06 09:25:42;;;;;;;2.35;2.13;;;15.70;46.00;;;;;;5073541;28;20040;-58
2022/05/06 09:28:23;;;;;;;2.67;2.38;;;15.80;45.30;;;;;;5076640;28;20031;-58
2022/05/06 09:31:08;;;;;;;;;;;15.80;44.90;;;;;;5076335;28;20063;-56
2022/05/06 09:33:37;;;;;;;2.20;2.00;;;15.70;44.50;;;;;;5072572;28;20443;-57
2022/05/06 09:36:22;;;;;;;2.45;2.25;;;15.70;45.10;;;;;;5064678;28;20032;-56
2022/05/06 09:39:08;;;;;;;2.15;1.95;;;15.70;42.80;;;;;;5074167;28;20027;-58
2022/05/06 09:41:37;;;;;;;2.58;2.00;;;15.70;43.90;;;;;;5068331;28;20028;-57
2022/05/06 09:44:05;;;;;;;2.50;2.20;;;15.70;44.50;;;;;;5067231;28;20090;-57
2022/05/06 09:46:31;;;;;;;2.20;2.00;;;15.70;45.20;;;;;;5075605;28;20491;-57
2022/05/06 09:48:59;;;;;;;2.47;2.08;;;15.70;45.10;;;;;;5070392;28;20028;-56
2022/05/06 09:51:29;;;;;;;2.00;1.80;;;15.80;44.70;;;;;;5068358;28;20059;-57
2022/05/06 09:53:56;;;;;;;2.90;2.20;;;15.80;44.60;;;;;;5058384;28;20109;-57
2022/05/06 09:56:22;;;;;;;3.17;2.03;;;15.70;44.00;;;;;;5059351;28;20201;-57
2022/05/06 09:58:51;;;;;;;2.30;2.03;;;15.70;44.00;;;;;;5050958;28;20028;-58
2022/05/06 10:01:18;;;;;;;2.97;2.33;;;15.70;43.80;;;;;;5068764;28;23272;-58
2022/05/06 10:03:43;;;;;;;2.85;1.95;;;15.70;43.90;;;;;;5063110;28;20556;-58
2022/05/06 10:06:11;;;;;;;2.70;2.28;;;15.70;43.80;;;;;;5066322;28;20036;-59
2022/05/06 10:08:53;;;;;;;2.65;2.20;;;15.70;43.50;;;;;;5063758;28;20446;-58
2022/05/06 10:11:23;;;;;;;2.20;2.03;;;15.60;43.30;;;;;;5067900;28;20039;-58
2022/05/06 10:13:50;;;;;;;3.50;1.92;;;15.60;43.70;;;;;;5066393;28;20960;-59
2022/05/06 10:16:15;;;;;;;2.72;2.40;;;15.60;43.60;;;;;;5068209;28;20028;-58
2022/05/06 10:18:43;;;;;;;3.38;2.53;;;15.60;43.70;;;;;;5066933;28;20055;-58
2022/05/06 10:21:10;;;;;;;2.53;2.33;;;15.60;43.30;;;;;;5069472;28;20032;-59
2022/05/06 10:23:56;;;;;;;4.70;2.28;;;15.60;43.50;;;;;;5075221;28;20044;-58
2022/05/06 10:26:34;;;;;;;2.17;2.08;;;15.50;43.10;;;;;;5073206;28;20236;-58
2022/05/06 10:34:31;;;;;;;2.58;2.38;;;15.50;43.50;;;;;;5071888;28;20798;-58
2022/05/06 10:37:00;;;;;;;2.53;2.20;;;15.50;43.60;;;;;;5069701;28;20024;-58
2022/05/06 10:39:29;;;;;;;2.20;2.00;;;15.50;43.40;;;;;;5074006;28;20032;-58
2022/05/06 10:42:08;;;;;;;3.63;2.45;;;15.50;43.60;;;;;;5070825;28;20032;-59
2022/05/06 10:44:42;;;;;;;2.70;2.50;;;15.50;43.80;;;;;;5075989;28;20474;-58
2022/05/06 10:47:19;;;;;;;8.07;2.55;;;15.50;43.60;;;;;;5083432;28;20024;-58
2022/05/06 10:49:52;;;;;;;2.63;2.20;;;15.50;43.90;;;;;;5078959;28;20068;-58
2022/05/06 10:52:23;;;;;;;2.72;2.30;;;15.50;44.20;;;;;;5080887;28;20085;-59
2022/05/06 10:54:49;;;;;;;2.53;2.30;;;15.50;43.90;;;;;;5069509;28;20036;-58
2022/05/06 10:57:16;;;;;;;2.10;1.90;;;15.50;44.10;;;;;;5080456;28;20054;-59
2022/05/06 10:59:57;;;;;;;2.20;2.00;;;15.60;44.10;;;;;;5082514;28;20559;-59
2022/05/06 11:02:29;;;;;;;2.63;1.95;;;15.50;43.80;;;;;;5077552;28;20380;-59
2022/05/06 11:04:57;;;;;;;2.40;2.15;;;15.60;44.20;;;;;;5071866;28;20028;-59
2022/05/06 11:07:23;;;;;;;2.28;2.05;;;15.50;44.50;;;;;;5077875;28;20038;-59
2022/05/06 11:09:51;;;;;;;3.70;2.38;;;15.50;44.20;;;;;;5072739;28;20036;-59
2022/05/06 11:12:40;;;;;;;2.65;2.28;;;15.50;44.30;;;;;;5075300;28;20040;-60
2022/05/06 11:15:14;;;;;;;3.38;2.47;;;15.50;43.50;;;;;;5077534;28;20032;-59
2022/05/06 11:17:44;;;;;;;2.00;1.83;;;15.60;43.40;;;;;;5076329;28;20040;-59
2022/05/06 11:20:26;;;;;;;2.17;2.00;;;15.60;43.30;;;;;;5077341;28;20032;-58
2022/05/06 11:23:06;;;;;;;2.25;2.05;;;15.50;43.40;;;;;;5070281;28;20382;-58
2022/05/06 11:25:35;;;;;;;3.92;3.00;;;15.60;43.40;;;;;;5078762;28;20031;-59
2022/05/06 11:28:11;;;;;;;2.40;2.17;;;15.60;43.80;;;;;;5076830;28;20070;-59
2022/05/06 11:30:37;;;;;;;2.47;2.22;;;15.60;43.30;;;;;;5080866;28;20096;-58
2022/05/06 11:33:04;;;;;;;2.30;2.10;;;15.60;43.40;;;;;;5083479;28;20036;-59
2022/05/06 11:35:45;;;;;;;2.20;2.00;;;15.60;43.00;;;;;;5078685;28;20049;-59
2022/05/06 11:38:11;;;;;;;;;;;15.60;42.90;;;;;;5078140;28;20508;-59
2022/05/06 11:40:38;;;;;;;2.33;1.95;;;15.60;42.80;;;;;;5075124;28;19912;-61
2022/05/06 11:43:18;;;;;;;3.30;2.10;;;15.50;43.50;;;;;;5073226;28;20798;-58
2022/05/06 11:48:31;;;;;;;2.97;1.98;;;15.60;43.80;;;;;;5072183;28;20062;-57
2022/05/06 11:51:00;;;;;;;2.15;1.95;;;15.60;43.30;;;;;;5074345;28;20059;-57
2022/05/06 11:53:27;;;;;;;2.75;2.08;;;15.60;43.60;;;;;;5074534;28;20028;-58
2022/05/06 11:55:56;;;;;;;2.17;1.95;;;15.60;43.30;;;;;;5078372;28;20088;-59
2022/05/06 11:58:24;;;;;;;3.58;2.20;;;15.60;43.10;;;;;;5076029;28;20042;-57
2022/05/06 12:00:51;;;;;;;2.13;1.92;;;15.70;43.20;;;;;;5076922;28;20059;-55
2022/05/06 12:03:18;;;;;;;2.40;2.15;;;15.70;43.10;;;;;;5074393;28;20038;-56
2022/05/06 12:05:57;;;;;;;1.90;1.80;;;15.70;43.10;;;;;;5076999;28;20035;-56
2022/05/06 12:08:26;;;;;;;2.33;1.98;;;15.70;43.40;;;;;;5072354;28;20100;-57
2022/05/06 12:11:02;;;;;;;2.13;2.03;;;15.70;43.40;;;;;;5074152;28;20478;-57
2022/05/06 12:13:38;;;;;;;1.90;1.80;;;15.70;43.00;;;;;;5081200;28;20032;-58
2022/05/06 12:16:09;;;;;;;2.03;1.90;;;15.70;42.90;;;;;;5078510;28;20053;-57
2022/05/06 12:18:36;;;;;;;;;;;15.70;43.50;;;;;;5080200;28;20036;-56
2022/05/06 12:21:18;;;;;;;2.20;2.00;;;15.70;43.30;;;;;;5072220;28;19912;-58
2022/05/06 12:23:53;;;;;;;4.82;2.35;;;15.70;43.20;;;;;;5071761;28;20039;-56
2022/05/06 12:26:33;;;;;;;3.50;2.38;;;15.70;43.30;;;;;;5073563;28;20070;-57
2022/05/06 12:29:00;;;;;;;1.95;1.85;;;15.80;43.30;;;;;;5078532;28;20052;-56
2022/05/06 12:31:33;;;;;;;2.25;2.10;;;15.80;43.50;;;;;;5077813;28;20028;-57
2022/05/06 12:34:09;;;;;;;2.22;1.77;;;15.80;43.70;;;;;;5073155;28;20786;-56
2022/05/06 12:36:36;;;;;;;2.30;2.10;;;15.80;43.80;;;;;;5072992;28;20034;-57
2022/05/06 12:39:19;;;;;;;2.72;2.28;;;15.80;44.20;;;;;;5074536;28;20031;-55
2022/05/06 12:41:45;;;;;;;2.97;2.05;;;15.80;44.50;;;;;;5077655;28;20107;-57
2022/05/06 12:44:17;;;;;;;1.80;1.70;;;15.70;44.70;;;;;;5077043;28;20571;-56
2022/05/06 12:46:42;;;;;;;;;;;15.70;45.30;;;;;;5075291;28;20028;-57
2022/05/06 12:51:52;;;;;;;2.22;2.03;;;15.70;44.90;;;;;;5077545;28;20075;-57
2022/05/06 12:54:18;;;;;;;2.28;1.85;;;15.60;45.00;;;;;;5069075;28;20107;-56
2022/05/06 12:56:44;;;;;;;2.70;2.05;;;15.60;45.20;;;;;;5066758;28;20121;-57
2022/05/06 12:59:09;;;;;;;2.92;2.28;;;15.70;45.70;;;;;;5074749;28;20472;-58
2022/05/06 13:01:36;;;;;;;2.88;2.20;;;15.70;45.70;;;;;;5073038;28;20040;-57
2022/05/06 13:04:02;;;;;;;2.20;2.00;;;15.70;45.80;;;;;;5074798;28;20035;-58
2022/05/06 13:06:31;;;;;;;2.30;2.10;;;15.70;45.60;;;;;;5073189;28;20174;-57
2022/05/06 13:08:57;;;;;;;2.20;2.00;;;15.70;45.50;;;;;;5074064;28;20482;-58
2022/05/06 13:11:23;;;;;;;1.90;1.80;;;15.80;45.10;;;;;;5074661;28;20035;-58
2022/05/06 13:13:48;;;;;;;2.33;2.03;;;15.80;45.10;;;;;;5074117;28;20065;-56
2022/05/06 13:16:14;;;;;;;2.30;2.08;;;15.80;44.70;;;;;;5074772;28;20491;-58
2022/05/06 13:18:40;;;;;;;3.08;2.35;;;15.80;45.00;;;;;;5075971;28;20055;-57
2022/05/06 13:21:06;;;;;;;2.17;2.00;;;15.80;44.80;;;;;;5075238;28;20051;-56
2022/05/06 13:23:32;;;;;;;2.22;2.05;;;15.80;44.50;;;;;;5074865;28;20567;-57
2022/05/06 13:25:59;;;;;;;2.28;2.08;;;15.80;44.30;;;;;;5079449;28;20032;-58
2022/05/06 13:28:24;;;;;;;2.00;1.90;;;15.90;44.40;;;;;;5073188;28;20046;-57
2022/05/06 13:30:50;;;;;;;3.03;1.83;;;15.90;44.20;;;;;;5074345;28;21451;-57
2022/05/06 13:33:16;;;;;;;2.00;1.80;;;15.90;44.00;;;;;;5055708;28;20114;-57
2022/05/06 13:35:43;;;;;;;2.83;2.25;;;15.90;43.90;;;;;;5080464;28;20035;-57